sensor_id;sensor_type;location;lat;lon;timestamp;pressure;altitude;pressure_sealevel;temperature;humidity
65754;BME280;52488;47.502;18.940;2022-10-31T00:00:23;98753.81;;;10.90;100.00
65754;BME280;52488;47.502;18.940;2022-10-31T00:01:29;98760.59;;;10.89;100.00
65754;BME280;52488;47.502;18.940;2022-10-31T00:02:33;98753.63;;;10.88;100.00
65754;BME280;52488;47.502;18.940;2022-10-31T00:03:36;98759.88;;;10.89;100.00
65754;BME280;52488;47.502;18.940;2022-10-31T00:04:39;98752.19;;;10.87;100.00
65754;BME280;52488;47.502;18.940;2022-10-31T00:05:46;98752.91;;;10.88;100.00
65754;BME280;52488;47.502;18.940;2022-10-31T00:06:50;98748.88;;;10.89;100.00
65754;BME280;52488;47.502;18.940;2022-10-31T00:07:53;98752.34;;;10.89;100.00
65754;BME280;52488;47.502;18.940;2022-10-31T00:09:01;98751.78;;;10.91;100.00
65754;BME280;52488;47.502;18.940;2022-10-31T00:10:05;98746.28;;;10.91;100.00
65754;BME280;52488;47.502;18.940;2022-10-31T00:11:09;98754.66;;;10.93;100.00
65754;BME280;52488;47.502;18.940;2022-10-31T00:12:12;98744.41;;;10.93;100.00
65754;BME280;52488;47.502;18.940;2022-10-31T00:13:15;98751.37;;;10.94;100.00
65754;BME280;52488;47.502;18.940;2022-10-31T00:14:18;98745.88;;;10.94;100.00
65754;BME280;52488;47.502;18.940;2022-10-31T00:15:21;98745.13;;;10.94;100.00
65754;BME280;52488;47.502;18.940;2022-10-31T00:16:25;98748.63;;;10.94;100.00
65754;BME280;52488;47.502;18.940;2022-10-31T00:17:28;98750.63;;;10.94;100.00
65754;BME280;52488;47.502;18.940;2022-10-31T00:18:31;98746.03;;;10.96;100.00
65754;BME280;52488;47.502;18.940;2022-10-31T00:19:34;98749.09;;;11.00;100.00
65754;BME280;52488;47.502;18.940;2022-10-31T00:20:38;98750.94;;;10.98;100.00
65754;BME280;52488;47.502;18.940;2022-10-31T00:21:41;98747.31;;;10.95;100.00
65754;BME280;52488;47.502;18.940;2022-10-31T00:22:44;98741.09;;;10.95;100.00
65754;BME280;52488;47.502;18.940;2022-10-31T00:23:47;98745.13;;;10.94;100.00
65754;BME280;52488;47.502;18.940;2022-10-31T00:24:50;98744.41;;;10.93;100.00
65754;BME280;52488;47.502;18.940;2022-10-31T00:25:54;98738.19;;;10.93;100.00
65754;BME280;52488;47.502;18.940;2022-10-31T00:26:57;98744.41;;;10.93;100.00
65754;BME280;52488;47.502;18.940;2022-10-31T00:28:00;98736.88;;;10.94;100.00
65754;BME280;52488;47.502;18.940;2022-10-31T00:29:03;98734.13;;;10.94;100.00
65754;BME280;52488;47.502;18.940;2022-10-31T00:30:06;98738.34;;;10.95;100.00
65754;BME280;52488;47.502;18.940;2022-10-31T00:31:11;98741.09;;;10.95;100.00
65754;BME280;52488;47.502;18.940;2022-10-31T00:32:14;98730.09;;;10.95;100.00
65754;BME280;52488;47.502;18.940;2022-10-31T00:33:17;98734.88;;;10.94;100.00
65754;BME280;52488;47.502;18.940;2022-10-31T00:34:20;98729.94;;;10.93;100.00
65754;BME280;52488;47.502;18.940;2022-10-31T00:35:23;98729.94;;;10.93;100.00
65754;BME280;52488;47.502;18.940;2022-10-31T00:36:27;98734.13;;;10.94;100.00
65754;BME280;52488;47.502;18.940;2022-10-31T00:37:29;98735.44;;;10.93;100.00
65754;BME280;52488;47.502;18.940;2022-10-31T00:38:33;98736.88;;;10.94;100.00
65754;BME280;52488;47.502;18.940;2022-10-31T00:39:36;98734.13;;;10.94;100.00
65754;BME280;52488;47.502;18.940;2022-10-31T00:40:39;98737.44;;;10.92;100.00
65754;BME280;52488;47.502;18.940;2022-10-31T00:41:42;98729.94;;;10.93;100.00
65754;BME280;52488;47.502;18.940;2022-10-31T00:42:45;98725.72;;;10.92;100.00
65754;BME280;52488;47.502;18.940;2022-10-31T00:43:48;98725.00;;;10.91;100.00
65754;BME280;52488;47.502;18.940;2022-10-31T00:44:51;98726.31;;;10.90;100.00
65754;BME280;52488;47.502;18.940;2022-10-31T00:45:54;98735.28;;;10.91;100.00
65754;BME280;52488;47.502;18.940;2022-10-31T00:46:56;98726.31;;;10.90;100.00
65754;BME280;52488;47.502;18.940;2022-10-31T00:47:59;98725.88;;;10.94;100.00
65754;BME280;52488;47.502;18.940;2022-10-31T00:49:03;98730.66;;;10.93;100.00
65754;BME280;52488;47.502;18.940;2022-10-31T00:50:07;98724.28;;;10.91;100.00
65754;BME280;52488;47.502;18.940;2022-10-31T00:51:10;98732.53;;;10.91;100.00
65754;BME280;52488;47.502;18.940;2022-10-31T00:52:13;98722.84;;;10.90;100.00
65754;BME280;52488;47.502;18.940;2022-10-31T00:53:20;98726.88;;;10.89;100.00
65754;BME280;52488;47.502;18.940;2022-10-31T00:54:23;98721.37;;;10.89;100.00
65754;BME280;52488;47.502;18.940;2022-10-31T00:55:25;98725.41;;;10.88;100.00
65754;BME280;52488;47.502;18.940;2022-10-31T00:56:28;98724.69;;;10.87;100.00
65754;BME280;52488;47.502;18.940;2022-10-31T00:57:31;98729.31;;;10.84;100.00
65754;BME280;52488;47.502;18.940;2022-10-31T00:58:34;98722.19;;;10.81;100.00
65754;BME280;52488;47.502;18.940;2022-10-31T00:59:37;98730.16;;;10.77;100.00
65754;BME280;52488;47.502;18.940;2022-10-31T01:00:40;98720.13;;;10.72;100.00
65754;BME280;52488;47.502;18.940;2022-10-31T01:01:43;98727.06;;;10.73;100.00
65754;BME280;52488;47.502;18.940;2022-10-31T01:02:46;98720.84;;;10.73;100.00
65754;BME280;52488;47.502;18.940;2022-10-31T01:03:49;98723.59;;;10.73;100.00
65754;BME280;52488;47.502;18.940;2022-10-31T01:04:53;98728.66;;;10.76;100.00
65754;BME280;52488;47.502;18.940;2022-10-31T01:06:22;98732.00;;;10.75;100.00
65754;BME280;52488;47.502;18.940;2022-10-31T01:07:25;98722.88;;;10.72;100.00
65754;BME280;52488;47.502;18.940;2022-10-31T01:08:28;98727.06;;;10.73;100.00
65754;BME280;52488;47.502;18.940;2022-10-31T01:09:31;98732.41;;;10.71;100.00
65754;BME280;52488;47.502;18.940;2022-10-31T01:10:34;98725.63;;;10.72;100.00
65754;BME280;52488;47.502;18.940;2022-10-31T01:11:37;98727.06;;;10.73;100.00
65754;BME280;52488;47.502;18.940;2022-10-31T01:12:42;98720.13;;;10.72;100.00
65754;BME280;52488;47.502;18.940;2022-10-31T01:13:46;98724.31;;;10.73;100.00
65754;BME280;52488;47.502;18.940;2022-10-31T01:14:50;98724.31;;;10.73;100.00
65754;BME280;52488;47.502;18.940;2022-10-31T01:15:57;98720.69;;;10.71;100.00
65754;BME280;52488;47.502;18.940;2022-10-31T01:17:00;98722.69;;;10.70;100.00
65754;BME280;52488;47.502;18.940;2022-10-31T01:18:03;98718.50;;;10.69;100.00
65754;BME280;52488;47.502;18.940;2022-10-31T01:19:06;98722.41;;;10.66;100.00
65754;BME280;52488;47.502;18.940;2022-10-31T01:20:10;98720.37;;;10.67;100.00
65754;BME280;52488;47.502;18.940;2022-10-31T01:21:16;98716.66;;;10.72;100.00
65754;BME280;52488;47.502;18.940;2022-10-31T01:22:20;98717.78;;;10.69;100.00
65754;BME280;52488;47.502;18.940;2022-10-31T01:23:23;98715.63;;;10.67;100.00
65754;BME280;52488;47.502;18.940;2022-10-31T01:24:26;98715.63;;;10.67;100.00
65754;BME280;52488;47.502;18.940;2022-10-31T01:25:28;98711.97;;;10.65;100.00
65754;BME280;52488;47.502;18.940;2022-10-31T01:26:32;98722.22;;;10.64;100.00
65754;BME280;52488;47.502;18.940;2022-10-31T01:27:35;98715.63;;;10.67;100.00
65754;BME280;52488;47.502;18.940;2022-10-31T01:28:44;98715.44;;;10.65;100.00
65754;BME280;52488;47.502;18.940;2022-10-31T01:29:48;98714.56;;;10.63;100.00
65754;BME280;52488;47.502;18.940;2022-10-31T01:30:51;98720.47;;;10.59;100.00
65754;BME280;52488;47.502;18.940;2022-10-31T01:31:54;98711.66;;;10.61;100.00
65754;BME280;52488;47.502;18.940;2022-10-31T01:33:01;98713.13;;;10.62;100.00
65754;BME280;52488;47.502;18.940;2022-10-31T01:34:14;98712.94;;;10.60;100.00
65754;BME280;52488;47.502;18.940;2022-10-31T01:35:17;98711.09;;;10.62;100.00
65754;BME280;52488;47.502;18.940;2022-10-31T01:36:28;98706.47;;;10.65;100.00
65754;BME280;52488;47.502;18.940;2022-10-31T01:37:31;98708.91;;;10.61;100.00
65754;BME280;52488;47.502;18.940;2022-10-31T01:38:34;98707.16;;;10.55;100.00
65754;BME280;52488;47.502;18.940;2022-10-31T01:39:39;98706.25;;;10.53;100.00
65754;BME280;52488;47.502;18.940;2022-10-31T01:40:42;98713.75;;;10.52;100.00
65754;BME280;52488;47.502;18.940;2022-10-31T01:41:47;98716.19;;;10.48;100.00
65754;BME280;52488;47.502;18.940;2022-10-31T01:42:51;98712.00;;;10.47;100.00
65754;BME280;52488;47.502;18.940;2022-10-31T01:45:00;98714.75;;;10.47;100.00
65754;BME280;52488;47.502;18.940;2022-10-31T01:46:03;98712.72;;;10.48;100.00
65754;BME280;52488;47.502;18.940;2022-10-31T01:47:19;98711.25;;;10.47;100.00
65754;BME280;52488;47.502;18.940;2022-10-31T01:48:24;98714.00;;;10.47;100.00
65754;BME280;52488;47.502;18.940;2022-10-31T01:49:40;98714.00;;;10.47;100.00
65754;BME280;52488;47.502;18.940;2022-10-31T01:50:48;98714.00;;;10.47;100.00
65754;BME280;52488;47.502;18.940;2022-10-31T01:51:58;98713.44;;;10.48;100.00
65754;BME280;52488;47.502;18.940;2022-10-31T01:53:05;98715.31;;;10.46;100.00
65754;BME280;52488;47.502;18.940;2022-10-31T01:54:12;98707.06;;;10.46;100.00
65754;BME280;52488;47.502;18.940;2022-10-31T01:56:26;98713.87;;;10.45;100.00
65754;BME280;52488;47.502;18.940;2022-10-31T01:57:31;98705.78;;;10.47;100.00
65754;BME280;52488;47.502;18.940;2022-10-31T01:58:35;98712.56;;;10.46;100.00
65754;BME280;52488;47.502;18.940;2022-10-31T01:59:42;98709.97;;;10.48;100.00
65754;BME280;52488;47.502;18.940;2022-10-31T02:00:50;98706.09;;;10.51;100.00
65754;BME280;52488;47.502;18.940;2022-10-31T02:01:54;98704.66;;;10.50;100.00
65754;BME280;52488;47.502;18.940;2022-10-31T02:02:57;98708.66;;;10.49;100.00
65754;BME280;52488;47.502;18.940;2022-10-31T02:04:03;98711.41;;;10.49;100.00
65754;BME280;52488;47.502;18.940;2022-10-31T02:05:10;98707.22;;;10.48;100.00
65754;BME280;52488;47.502;18.940;2022-10-31T02:09:04;98709.09;;;10.45;100.00
65754;BME280;52488;47.502;18.940;2022-10-31T02:10:08;98698.09;;;10.45;100.00
65754;BME280;52488;47.502;18.940;2022-10-31T02:11:11;98697.37;;;10.45;100.00
65754;BME280;52488;47.502;18.940;2022-10-31T02:12:20;98705.78;;;10.47;100.00
65754;BME280;52488;47.502;18.940;2022-10-31T02:13:24;98694.94;;;10.49;100.00
65754;BME280;52488;47.502;18.940;2022-10-31T02:14:33;98701.56;;;10.46;100.00
65754;BME280;52488;47.502;18.940;2022-10-31T02:15:37;98705.44;;;10.43;100.00
65754;BME280;52488;47.502;18.940;2022-10-31T02:16:40;98697.78;;;10.41;100.00
65754;BME280;52488;47.502;18.940;2022-10-31T02:17:44;98707.72;;;10.37;100.00
65754;BME280;52488;47.502;18.940;2022-10-31T02:18:47;98701.75;;;10.30;100.00
65754;BME280;52488;47.502;18.940;2022-10-31T02:21:37;98693.50;;;10.30;100.00
65754;BME280;52488;47.502;18.940;2022-10-31T02:23:10;98692.38;;;10.34;100.00
65754;BME280;52488;47.502;18.940;2022-10-31T02:25:51;98693.84;;;10.35;100.00
65754;BME280;52488;47.502;18.940;2022-10-31T02:27:40;98694.56;;;10.35;100.00
65754;BME280;52488;47.502;18.940;2022-10-31T02:29:15;98700.78;;;10.36;100.00
65754;BME280;52488;47.502;18.940;2022-10-31T02:30:31;98692.13;;;10.39;100.00
65754;BME280;52488;47.502;18.940;2022-10-31T02:32:04;98696.00;;;10.36;100.00
65754;BME280;52488;47.502;18.940;2022-10-31T02:33:26;98698.91;;;10.38;100.00
65754;BME280;52488;47.502;18.940;2022-10-31T02:34:52;98703.84;;;10.40;100.00
65754;BME280;52488;47.502;18.940;2022-10-31T02:36:17;98699.66;;;10.39;100.00
65754;BME280;52488;47.502;18.940;2022-10-31T02:38:52;98702.66;;;10.33;100.00
65754;BME280;52488;47.502;18.940;2022-10-31T02:41:26;98708.69;;;10.31;100.00
65754;BME280;52488;47.502;18.940;2022-10-31T02:42:39;98699.16;;;10.32;100.00
65754;BME280;52488;47.502;18.940;2022-10-31T02:44:38;98702.06;;;10.35;100.00
65754;BME280;52488;47.502;18.940;2022-10-31T02:45:54;98703.38;;;10.34;100.00
65754;BME280;52488;47.502;18.940;2022-10-31T02:47:01;98707.56;;;10.35;100.00
65754;BME280;52488;47.502;18.940;2022-10-31T02:48:12;98702.06;;;10.35;100.00
65754;BME280;52488;47.502;18.940;2022-10-31T02:50:30;98706.50;;;10.30;100.00
65754;BME280;52488;47.502;18.940;2022-10-31T02:51:35;98709.41;;;10.32;100.00
65754;BME280;52488;47.502;18.940;2022-10-31T02:52:38;98710.31;;;10.35;100.00
65754;BME280;52488;47.502;18.940;2022-10-31T02:53:42;98712.87;;;10.32;100.00
65754;BME280;52488;47.502;18.940;2022-10-31T02:54:46;98712.72;;;10.30;100.00
65754;BME280;52488;47.502;18.940;2022-10-31T02:56:02;98711.84;;;10.28;100.00
65754;BME280;52488;47.502;18.940;2022-10-31T02:57:07;98716.78;;;10.29;100.00
65754;BME280;52488;47.502;18.940;2022-10-31T02:58:15;98716.06;;;10.29;100.00
65754;BME280;52488;47.502;18.940;2022-10-31T02:59:26;98709.66;;;10.26;100.00
65754;BME280;52488;47.502;18.940;2022-10-31T03:02:18;98712.25;;;10.24;100.00
65754;BME280;52488;47.502;18.940;2022-10-31T03:05:44;98712.59;;;10.28;100.00
65754;BME280;52488;47.502;18.940;2022-10-31T03:11:00;98716.44;;;10.25;100.00
65754;BME280;52488;47.502;18.940;2022-10-31T03:15:44;98713.31;;;10.29;100.00
65754;BME280;52488;47.502;18.940;2022-10-31T03:16:52;98708.53;;;10.29;100.00
65754;BME280;52488;47.502;18.940;2022-10-31T03:19:09;98708.22;;;10.25;100.00
65754;BME280;52488;47.502;18.940;2022-10-31T03:20:14;98711.69;;;10.26;100.00
65754;BME280;52488;47.502;18.940;2022-10-31T03:21:25;98719.38;;;10.27;100.00
65754;BME280;52488;47.502;18.940;2022-10-31T03:22:30;98717.34;;;10.28;100.00
65754;BME280;52488;47.502;18.940;2022-10-31T03:23:36;98717.50;;;10.30;100.00
65754;BME280;52488;47.502;18.940;2022-10-31T03:24:40;98714.75;;;10.30;100.00
65754;BME280;52488;47.502;18.940;2022-10-31T03:25:45;98720.41;;;10.32;100.00
65754;BME280;52488;47.502;18.940;2022-10-31T03:26:51;98711.44;;;10.31;100.00
65754;BME280;52488;47.502;18.940;2022-10-31T03:27:56;98720.41;;;10.32;100.00
65754;BME280;52488;47.502;18.940;2022-10-31T03:29:05;98729.34;;;10.32;100.00
65754;BME280;52488;47.502;18.940;2022-10-31T03:30:09;98721.69;;;10.31;100.00
65754;BME280;52488;47.502;18.940;2022-10-31T03:31:17;98725.00;;;10.29;100.00
65754;BME280;52488;47.502;18.940;2022-10-31T03:32:42;98721.69;;;10.31;100.00
65754;BME280;52488;47.502;18.940;2022-10-31T03:33:50;98727.91;;;10.31;100.00
65754;BME280;52488;47.502;18.940;2022-10-31T03:34:56;98728.09;;;10.34;100.00
65754;BME280;52488;47.502;18.940;2022-10-31T03:36:02;98730.25;;;10.35;100.00
65754;BME280;52488;47.502;18.940;2022-10-31T03:37:09;98731.13;;;10.38;100.00
65754;BME280;52488;47.502;18.940;2022-10-31T03:38:14;98726.22;;;10.36;100.00
65754;BME280;52488;47.502;18.940;2022-10-31T03:39:20;98717.97;;;10.36;100.00
65754;BME280;52488;47.502;18.940;2022-10-31T03:40:26;98720.00;;;10.36;100.00
65754;BME280;52488;47.502;18.940;2022-10-31T03:41:34;98718.88;;;10.39;100.00
65754;BME280;52488;47.502;18.940;2022-10-31T03:42:41;98727.13;;;10.39;100.00
65754;BME280;52488;47.502;18.940;2022-10-31T03:43:52;98729.44;;;10.42;100.00
65754;BME280;52488;47.502;18.940;2022-10-31T03:45:16;98720.56;;;10.51;100.00
65754;BME280;52488;47.502;18.940;2022-10-31T03:46:21;98728.41;;;10.55;100.00
65754;BME280;52488;47.502;18.940;2022-10-31T03:47:25;98722.09;;;10.45;100.00
65754;BME280;52488;47.502;18.940;2022-10-31T03:48:29;98726.38;;;10.38;100.00
65754;BME280;52488;47.502;18.940;2022-10-31T03:49:32;98726.06;;;10.34;100.00
65754;BME280;52488;47.502;18.940;2022-10-31T03:51:06;98728.81;;;10.34;100.00
65754;BME280;52488;47.502;18.940;2022-10-31T03:52:17;98727.50;;;10.35;100.00
65754;BME280;52488;47.502;18.940;2022-10-31T03:53:39;98726.53;;;10.40;100.00
65754;BME280;52488;47.502;18.940;2022-10-31T03:54:46;98730.84;;;10.34;100.00
65754;BME280;52488;47.502;18.940;2022-10-31T03:56:02;98734.13;;;10.32;100.00
65754;BME280;52488;47.502;18.940;2022-10-31T03:57:24;98733.41;;;10.31;100.00
65754;BME280;52488;47.502;18.940;2022-10-31T03:58:37;98731.94;;;10.30;100.00
65754;BME280;52488;47.502;18.940;2022-10-31T03:59:44;98731.94;;;10.30;100.00
65754;BME280;52488;47.502;18.940;2022-10-31T04:00:51;98732.03;;;10.40;100.00
65754;BME280;52488;47.502;18.940;2022-10-31T04:01:58;98732.91;;;10.43;100.00
65754;BME280;52488;47.502;18.940;2022-10-31T04:03:06;98728.97;;;10.36;100.00
65754;BME280;52488;47.502;18.940;2022-10-31T04:04:12;98729.94;;;10.31;100.00
65754;BME280;52488;47.502;18.940;2022-10-31T04:05:17;98729.06;;;10.28;100.00
65754;BME280;52488;47.502;18.940;2022-10-31T04:06:22;98734.69;;;10.30;100.00
65754;BME280;52488;47.502;18.940;2022-10-31T04:07:31;98731.72;;;10.36;100.00
65754;BME280;52488;47.502;18.940;2022-10-31T04:08:46;98721.44;;;10.37;100.00
65754;BME280;52488;47.502;18.940;2022-10-31T04:09:52;98730.84;;;10.34;100.00
65754;BME280;52488;47.502;18.940;2022-10-31T04:10:57;98726.59;;;10.32;100.00
65754;BME280;52488;47.502;18.940;2022-10-31T04:12:05;98734.56;;;10.28;100.00
65754;BME280;52488;47.502;18.940;2022-10-31T04:13:14;98738.25;;;10.23;100.00
65754;BME280;52488;47.502;18.940;2022-10-31T04:14:27;98724.69;;;10.25;100.00
65754;BME280;52488;47.502;18.940;2022-10-31T04:15:33;98725.34;;;10.34;100.00
65754;BME280;52488;47.502;18.940;2022-10-31T04:16:39;98732.75;;;10.41;100.00
65754;BME280;52488;47.502;18.940;2022-10-31T04:17:44;98727.84;;;10.39;100.00
65754;BME280;52488;47.502;18.940;2022-10-31T04:18:49;98734.69;;;10.30;100.00
65754;BME280;52488;47.502;18.940;2022-10-31T04:19:52;98727.28;;;10.23;100.00
65754;BME280;52488;47.502;18.940;2022-10-31T04:21:06;98730.38;;;10.20;100.00
65754;BME280;52488;47.502;18.940;2022-10-31T04:22:09;98730.97;;;10.18;100.00
65754;BME280;52488;47.502;18.940;2022-10-31T04:23:33;98729.50;;;10.17;100.00
65754;BME280;52488;47.502;18.940;2022-10-31T04:24:39;98729.34;;;10.15;100.00
65754;BME280;52488;47.502;18.940;2022-10-31T04:25:43;98737.19;;;10.19;100.00
65754;BME280;52488;47.502;18.940;2022-10-31T04:26:46;98733.84;;;10.20;100.00
65754;BME280;52488;47.502;18.940;2022-10-31T04:27:48;98736.59;;;10.20;100.00
65754;BME280;52488;47.502;18.940;2022-10-31T04:28:51;98741.94;;;10.18;100.00
65754;BME280;52488;47.502;18.940;2022-10-31T04:29:54;98740.50;;;10.17;100.00
65754;BME280;52488;47.502;18.940;2022-10-31T04:30:57;98743.97;;;10.18;100.00
65754;BME280;52488;47.502;18.940;2022-10-31T04:32:00;98745.56;;;10.21;100.00
65754;BME280;52488;47.502;18.940;2022-10-31T04:33:03;98745.94;;;10.25;100.00
65754;BME280;52488;47.502;18.940;2022-10-31T04:34:06;98749.25;;;10.23;100.00
65754;BME280;52488;47.502;18.940;2022-10-31T04:35:10;98749.41;;;10.25;100.00
65754;BME280;52488;47.502;18.940;2022-10-31T04:36:13;98746.28;;;10.21;100.00
65754;BME280;52488;47.502;18.940;2022-10-31T04:37:16;98753.66;;;10.19;100.00
65754;BME280;52488;47.502;18.940;2022-10-31T04:38:19;98750.19;;;10.18;100.00
65754;BME280;52488;47.502;18.940;2022-10-31T04:39:21;98748.16;;;10.19;100.00
65754;BME280;52488;47.502;18.940;2022-10-31T04:40:28;98751.63;;;10.19;100.00
65754;BME280;52488;47.502;18.940;2022-10-31T04:41:31;98754.38;;;10.19;100.00
65754;BME280;52488;47.502;18.940;2022-10-31T04:42:37;98748.88;;;10.19;100.00
65754;BME280;52488;47.502;18.940;2022-10-31T04:43:41;98747.44;;;10.18;100.00
65754;BME280;52488;47.502;18.940;2022-10-31T04:44:44;98743.06;;;10.15;100.00
65754;BME280;52488;47.502;18.940;2022-10-31T04:45:47;98752.59;;;10.14;100.00
65754;BME280;52488;47.502;18.940;2022-10-31T04:46:50;98748.50;;;10.23;100.00
65754;BME280;52488;47.502;18.940;2022-10-31T04:47:53;98758.56;;;10.20;100.00
65754;BME280;52488;47.502;18.940;2022-10-31T04:48:56;98754.22;;;10.17;100.00
65754;BME280;52488;47.502;18.940;2022-10-31T04:49:59;98755.50;;;10.16;100.00
65754;BME280;52488;47.502;18.940;2022-10-31T04:51:02;98755.34;;;10.14;100.00
65754;BME280;52488;47.502;18.940;2022-10-31T04:52:09;98757.94;;;10.12;100.00
65754;BME280;52488;47.502;18.940;2022-10-31T04:53:15;98761.41;;;10.13;100.00
65754;BME280;52488;47.502;18.940;2022-10-31T04:54:18;98760.81;;;10.14;100.00
65754;BME280;52488;47.502;18.940;2022-10-31T04:55:21;98757.94;;;10.12;100.00
65754;BME280;52488;47.502;18.940;2022-10-31T04:56:30;98757.03;;;10.10;100.00
65754;BME280;52488;47.502;18.940;2022-10-31T04:57:43;98757.03;;;10.10;100.00
65754;BME280;52488;47.502;18.940;2022-10-31T04:58:46;98761.97;;;10.11;100.00
65754;BME280;52488;47.502;18.940;2022-10-31T04:59:49;98754.28;;;10.10;100.00
65754;BME280;52488;47.502;18.940;2022-10-31T05:00:53;98752.59;;;10.14;100.00
65754;BME280;52488;47.502;18.940;2022-10-31T05:01:57;98758.41;;;10.18;100.00
65754;BME280;52488;47.502;18.940;2022-10-31T05:03:00;98751.87;;;10.14;100.00
65754;BME280;52488;47.502;18.940;2022-10-31T05:04:04;98753.16;;;10.13;100.00
65754;BME280;52488;47.502;18.940;2022-10-31T05:05:07;98740.88;;;10.14;100.00
65754;BME280;52488;47.502;18.940;2022-10-31T05:06:10;98751.87;;;10.14;100.00
65754;BME280;52488;47.502;18.940;2022-10-31T05:07:13;98750.03;;;10.16;100.00
65754;BME280;52488;47.502;18.940;2022-10-31T05:08:16;98752.78;;;10.16;100.00
65754;BME280;52488;47.502;18.940;2022-10-31T05:09:19;98752.03;;;10.16;100.00
65754;BME280;52488;47.502;18.940;2022-10-31T05:10:24;98751.28;;;10.15;100.00
65754;BME280;52488;47.502;18.940;2022-10-31T05:11:27;98760.25;;;10.16;100.00
65754;BME280;52488;47.502;18.940;2022-10-31T05:12:30;98754.22;;;10.17;100.00
65754;BME280;52488;47.502;18.940;2022-10-31T05:13:33;98753.50;;;10.17;100.00
65754;BME280;52488;47.502;18.940;2022-10-31T05:14:36;98759.72;;;10.17;100.00
65754;BME280;52488;47.502;18.940;2022-10-31T05:15:39;98750.03;;;10.16;100.00
65754;BME280;52488;47.502;18.940;2022-10-31T05:16:42;98762.47;;;10.17;100.00
65754;BME280;52488;47.502;18.940;2022-10-31T05:17:45;98763.75;;;10.16;100.00
65754;BME280;52488;47.502;18.940;2022-10-31T05:18:48;98758.25;;;10.16;100.00
65754;BME280;52488;47.502;18.940;2022-10-31T05:19:51;98766.09;;;10.20;100.00
65754;BME280;52488;47.502;18.940;2022-10-31T05:21:01;98768.09;;;10.19;100.00
65754;BME280;52488;47.502;18.940;2022-10-31T05:22:04;98770.12;;;10.19;100.00
65754;BME280;52488;47.502;18.940;2022-10-31T05:23:07;98753.97;;;10.23;100.00
65754;BME280;52488;47.502;18.940;2022-10-31T05:24:10;98737.84;;;10.27;100.00
65754;BME280;52488;47.502;18.940;2022-10-31T05:25:14;98744.13;;;10.20;100.00
65754;BME280;52488;47.502;18.940;2022-10-31T05:26:17;98746.53;;;10.16;100.00
65754;BME280;52488;47.502;18.940;2022-10-31T05:27:20;98758.50;;;10.11;100.00
65754;BME280;52488;47.502;18.940;2022-10-31T05:28:24;98745.88;;;10.08;100.00
65754;BME280;52488;47.502;18.940;2022-10-31T05:29:27;98745.50;;;10.11;100.00
65754;BME280;52488;47.502;18.940;2022-10-31T05:30:31;98742.19;;;10.13;100.00
65754;BME280;52488;47.502;18.940;2022-10-31T05:31:34;98751.87;;;10.14;100.00
65754;BME280;52488;47.502;18.940;2022-10-31T05:32:41;98749.69;;;10.12;100.00
65754;BME280;52488;47.502;18.940;2022-10-31T05:33:44;98761.88;;;10.19;100.00
65754;BME280;52488;47.502;18.940;2022-10-31T05:34:47;98769.97;;;10.17;100.00
65754;BME280;52488;47.502;18.940;2022-10-31T05:35:50;98773.25;;;10.15;100.00
65754;BME280;52488;47.502;18.940;2022-10-31T05:36:53;98773.09;;;10.13;100.00
65754;BME280;52488;47.502;18.940;2022-10-31T05:37:57;98770.75;;;10.10;100.00
65754;BME280;52488;47.502;18.940;2022-10-31T05:39:00;98764.53;;;10.09;100.00
65754;BME280;52488;47.502;18.940;2022-10-31T05:40:07;98767.47;;;10.11;100.00
65754;BME280;52488;47.502;18.940;2022-10-31T05:41:11;98761.25;;;10.11;100.00
65754;BME280;52488;47.502;18.940;2022-10-31T05:42:14;98776.41;;;10.12;100.00
65754;BME280;52488;47.502;18.940;2022-10-31T05:43:17;98773.44;;;10.17;100.00
65754;BME280;52488;47.502;18.940;2022-10-31T05:44:20;98772.72;;;10.17;100.00
65754;BME280;52488;47.502;18.940;2022-10-31T05:45:23;98775.47;;;10.17;100.00
65754;BME280;52488;47.502;18.940;2022-10-31T05:46:26;98770.50;;;10.15;100.00
65754;BME280;52488;47.502;18.940;2022-10-31T05:47:29;98776.91;;;10.18;100.00
65754;BME280;52488;47.502;18.940;2022-10-31T05:48:32;98768.09;;;10.19;100.00
65754;BME280;52488;47.502;18.940;2022-10-31T05:49:35;98770.84;;;10.19;100.00
65754;BME280;52488;47.502;18.940;2022-10-31T05:50:38;98768.09;;;10.19;100.00
65754;BME280;52488;47.502;18.940;2022-10-31T05:51:41;98769.56;;;10.20;100.00
65754;BME280;52488;47.502;18.940;2022-10-31T05:52:43;98773.75;;;10.21;100.00
65754;BME280;52488;47.502;18.940;2022-10-31T05:53:46;98774.69;;;10.24;100.00
65754;BME280;52488;47.502;18.940;2022-10-31T05:54:50;98772.66;;;10.24;100.00
65754;BME280;52488;47.502;18.940;2022-10-31T05:55:53;98766.78;;;10.28;100.00
65754;BME280;52488;47.502;18.940;2022-10-31T05:56:56;98760.56;;;10.27;100.00
65754;BME280;52488;47.502;18.940;2022-10-31T05:57:59;98762.56;;;10.27;100.00
65754;BME280;52488;47.502;18.940;2022-10-31T05:59:02;98760.56;;;10.27;100.00
65754;BME280;52488;47.502;18.940;2022-10-31T06:00:05;98762.56;;;10.27;100.00
65754;BME280;52488;47.502;18.940;2022-10-31T06:01:09;98770.06;;;10.26;100.00
65754;BME280;52488;47.502;18.940;2022-10-31T06:02:13;98765.47;;;10.29;100.00
65754;BME280;52488;47.502;18.940;2022-10-31T06:03:15;98764.75;;;10.28;100.00
65754;BME280;52488;47.502;18.940;2022-10-31T06:04:18;98768.63;;;10.25;100.00
65754;BME280;52488;47.502;18.940;2022-10-31T06:05:21;98773.97;;;10.23;100.00
65754;BME280;52488;47.502;18.940;2022-10-31T06:06:30;98771.22;;;10.23;100.00